createdAt,value
2022-11-24T00:02:18.388Z,71.77
2022-11-24T00:04:50.262Z,71.57
2022-11-24T00:07:21.961Z,71.52
2022-11-24T00:09:53.996Z,71.67
2022-11-24T00:12:25.643Z,71.65
2022-11-24T00:14:57.402Z,71.71
2022-11-24T00:17:29.573Z,71.45
2022-11-24T00:20:01.240Z,71.38
2022-11-24T00:22:33.505Z,71.31
2022-11-24T00:25:05.757Z,71.26
2022-11-24T00:27:37.430Z,71.23
2022-11-24T00:30:10.789Z,71.03
2022-11-24T00:32:42.501Z,70.97
2022-11-24T00:35:14.304Z,71.06
2022-11-24T00:37:46.149Z,70.93
2022-11-24T00:40:17.865Z,70.88
2022-11-24T00:42:49.625Z,70.65
2022-11-24T00:45:21.279Z,70.70
2022-11-24T00:47:52.944Z,70.73
2022-11-24T00:50:24.631Z,70.64
2022-11-24T00:52:56.350Z,70.62
2022-11-24T00:55:28.004Z,70.79
2022-11-24T00:57:59.670Z,70.76
2022-11-24T01:00:31.434Z,70.83
2022-11-24T01:03:03.236Z,70.92
2022-11-24T01:05:38.941Z,71.07
2022-11-24T01:08:10.976Z,70.95
2022-11-24T01:10:42.759Z,70.90
2022-11-24T01:13:14.516Z,70.84
2022-11-24T01:15:46.244Z,70.82
2022-11-24T01:18:18.035Z,70.75
2022-11-24T01:20:49.927Z,70.78
2022-11-24T01:23:21.663Z,70.79
2022-11-24T01:25:53.514Z,70.78
2022-11-24T01:28:25.181Z,70.76
2022-11-24T01:31:01.825Z,70.65
2022-11-24T01:33:34.327Z,70.67
2022-11-24T01:36:07.690Z,70.55
2022-11-24T01:38:39.315Z,70.57
2022-11-24T01:41:13.625Z,70.60
2022-11-24T01:43:46.145Z,70.73
2022-11-24T01:46:23.899Z,70.60
2022-11-24T01:49:04.268Z,70.86
2022-11-24T01:51:38.448Z,70.92
2022-11-24T01:54:14.373Z,70.96
2022-11-24T01:56:50.769Z,70.98
2022-11-24T01:59:23.766Z,70.77
2022-11-24T02:01:57.398Z,70.79
2022-11-24T02:04:34.173Z,70.79
2022-11-24T02:07:08.504Z,70.79
2022-11-24T02:09:45.133Z,70.89
2022-11-24T02:12:16.878Z,70.80
2022-11-24T02:14:49.253Z,70.89
2022-11-24T02:17:21.018Z,70.86
2022-11-24T02:19:58.619Z,70.88
2022-11-24T02:22:40.919Z,71.01
2022-11-24T02:25:20.664Z,70.97
2022-11-24T10:11:40.599Z,78.35
2022-11-24T10:14:32.452Z,78.23
2022-11-24T10:17:13.625Z,78.24
2022-11-24T10:19:50.503Z,78.01
2022-11-24T10:22:37.011Z,78.06
2022-11-24T10:25:19.941Z,78.11
2022-11-24T10:27:55.737Z,78.08
2022-11-24T10:30:27.661Z,78.10
2022-11-24T10:33:02.756Z,78.11
2022-11-24T10:35:49.172Z,78.00
2022-11-24T10:38:33.471Z,77.73
2022-11-24T10:41:09.591Z,77.60
2022-11-24T10:43:44.261Z,77.52
2022-11-24T10:46:22.923Z,77.44
2022-11-24T10:48:58.722Z,77.32
2022-11-24T10:51:54.018Z,77.27
2022-11-24T10:54:26.589Z,77.04
2022-11-24T10:56:58.677Z,76.71
2022-11-24T10:59:37.246Z,76.70
2022-11-24T11:02:30.628Z,76.50
2022-11-24T11:05:27.694Z,76.28
2022-11-24T11:11:15.642Z,76.10
2022-11-24T11:14:03.456Z,75.78
2022-11-24T11:16:39.047Z,75.77
2022-11-24T11:19:48.861Z,75.71
2022-11-24T11:22:25.987Z,75.61
2022-11-24T11:25:15.829Z,75.60
2022-11-24T11:27:48.282Z,75.51
2022-11-24T11:36:18.582Z,75.29
2022-11-24T11:38:50.460Z,75.24
2022-11-24T11:41:26.758Z,75.35
2022-11-24T11:44:09.985Z,75.06
2022-11-24T11:46:42.902Z,75.05
2022-11-24T11:49:15.313Z,74.80
2022-11-24T11:52:03.465Z,74.80
2022-11-24T11:54:54.244Z,74.77
2022-11-24T11:57:36.110Z,74.68
2022-11-24T12:00:16.488Z,74.46
2022-11-24T12:03:06.176Z,74.44
2022-11-24T12:05:48.609Z,74.37
2022-11-24T12:08:49.619Z,74.45
2022-11-24T12:11:35.098Z,74.54
2022-11-24T12:14:26.764Z,74.54
2022-11-24T12:17:04.162Z,74.50
2022-11-24T12:19:55.481Z,74.48
2022-11-24T12:22:41.873Z,74.76
2022-11-24T12:25:26.813Z,74.68
2022-11-24T12:28:12.364Z,74.74
2022-11-24T12:30:52.768Z,74.68
2022-11-24T12:33:50.329Z,74.71
2022-11-24T12:36:37.657Z,74.60
2022-11-24T12:39:22.247Z,74.68
2022-11-24T12:42:13.909Z,74.67
2022-11-24T12:45:14.176Z,74.36
2022-11-24T12:48:19.877Z,74.29
2022-11-24T12:50:54.703Z,74.19
2022-11-24T12:53:30.051Z,74.13
2022-11-24T12:56:06.625Z,74.17
2022-11-24T12:58:50.118Z,74.21
2022-11-24T13:01:32.863Z,74.46
2022-11-24T13:04:13.132Z,74.46
2022-11-24T13:06:53.449Z,74.34
2022-11-24T13:09:25.049Z,74.32
2022-11-24T13:12:06.571Z,74.41
2022-11-24T13:14:40.323Z,74.38
2022-11-24T13:20:27.313Z,74.26
2022-11-24T13:23:01.465Z,74.07
2022-11-24T13:25:34.868Z,74.05
2022-11-24T13:28:54.069Z,73.89
2022-11-24T13:31:25.464Z,73.89
2022-11-24T13:33:57.329Z,74.00
2022-11-24T13:36:50.389Z,73.93
2022-11-24T13:39:23.196Z,73.81
2022-11-24T13:42:42.679Z,73.91
2022-11-24T13:45:04.278Z,73.79
2022-11-24T13:47:38.589Z,73.78
2022-11-24T13:50:23.263Z,73.57
2022-11-24T13:53:08.982Z,73.50
2022-11-24T13:55:42.652Z,73.38
2022-11-24T13:58:29.977Z,73.52
2022-11-24T14:01:16.285Z,73.52
2022-11-24T14:04:28.730Z,73.91
2022-11-24T14:06:58.996Z,73.77
2022-11-24T14:09:36.721Z,73.56
2022-11-24T14:12:16.887Z,73.81
2022-11-24T14:14:50.530Z,73.95
2022-11-24T14:17:23.092Z,73.98
2022-11-24T14:19:57.238Z,74.16
2022-11-24T14:22:36.625Z,74.17
2022-11-24T14:25:20.886Z,74.33
2022-11-24T14:27:52.747Z,74.02
2022-11-24T14:30:26.840Z,74.20
2022-11-24T14:33:00.242Z,74.10
2022-11-24T14:35:34.506Z,73.96
2022-11-24T14:38:07.335Z,74.14
2022-11-24T14:40:45.069Z,73.94
2022-11-24T14:43:23.674Z,73.91
2022-11-24T14:45:57.610Z,73.82
2022-11-24T14:48:32.554Z,73.70
2022-11-24T14:51:16.263Z,73.71
2022-11-24T14:53:51.262Z,73.56
2022-11-24T14:56:28.235Z,73.63
2022-11-24T14:59:00.646Z,73.57
2022-11-24T15:01:36.138Z,73.48
2022-11-24T15:04:39.317Z,73.47
2022-11-24T15:07:21.549Z,73.59
2022-11-24T15:09:57.649Z,73.54
2022-11-24T15:12:34.493Z,73.50
2022-11-24T15:15:17.142Z,73.37
2022-11-24T15:17:51.007Z,73.58
2022-11-24T15:20:25.613Z,73.42
2022-11-24T15:23:21.730Z,73.36
2022-11-24T15:25:54.886Z,73.63
2022-11-24T15:28:27.257Z,73.42
2022-11-24T15:31:01.149Z,73.28
2022-11-24T15:33:33.669Z,73.21
2022-11-24T15:36:05.837Z,73.35
2022-11-24T15:38:37.438Z,73.40
2022-11-24T15:41:20.128Z,73.26
2022-11-24T15:43:58.913Z,73.06
2022-11-24T15:46:37.803Z,73.10
2022-11-24T15:49:10.117Z,73.20
2022-11-24T15:51:55.305Z,73.27
2022-11-24T15:54:29.612Z,73.34
2022-11-24T15:57:02.138Z,73.26
2022-11-24T15:59:34.481Z,73.45
2022-11-24T16:02:06.168Z,73.35
2022-11-24T16:04:41.541Z,73.26
2022-11-24T16:07:14.544Z,73.35
2022-11-24T16:09:46.390Z,73.26
2022-11-24T16:12:17.955Z,73.37
2022-11-24T16:14:49.530Z,73.22
2022-11-24T16:17:21.081Z,73.19
2022-11-24T16:20:00.226Z,73.14
2022-11-24T16:22:32.338Z,73.24
2022-11-24T16:25:04.166Z,73.21
2022-11-24T16:27:35.938Z,73.24
2022-11-24T16:30:11.907Z,73.28
2022-11-24T16:32:43.563Z,73.17
2022-11-24T16:35:16.108Z,73.19
2022-11-24T16:37:49.788Z,73.24
2022-11-24T16:40:20.127Z,73.27
2022-11-24T16:42:53.040Z,73.49
2022-11-24T16:45:24.639Z,73.58
2022-11-24T16:47:56.320Z,73.25
2022-11-24T16:50:27.964Z,73.37
2022-11-24T16:53:00.205Z,73.30
2022-11-24T16:55:31.806Z,73.18
2022-11-24T16:58:06.023Z,73.12
2022-11-24T17:00:37.734Z,73.26
2022-11-24T17:03:09.361Z,73.22
2022-11-24T17:05:41.241Z,73.04
2022-11-24T17:08:12.918Z,73.01
2022-11-24T17:10:44.583Z,72.97
2022-11-24T17:13:16.307Z,73.09
2022-11-24T17:15:53.783Z,73.17
2022-11-24T17:18:26.110Z,73.05
2022-11-24T17:21:07.701Z,73.15
2022-11-24T17:23:41.337Z,73.07
2022-11-24T17:26:14.938Z,73.15
2022-11-24T17:28:45.358Z,73.25
2022-11-24T17:31:22.716Z,73.08
2022-11-24T17:33:56.331Z,73.36
2022-11-24T17:36:28.148Z,73.22
2022-11-24T17:39:01.569Z,73.11
2022-11-24T17:41:34.567Z,73.18
2022-11-24T17:44:08.488Z,73.14
2022-11-24T17:46:40.141Z,72.99
2022-11-24T17:49:13.296Z,73.06
2022-11-24T17:51:46.321Z,72.86
2022-11-24T17:57:10.325Z,73.11
2022-11-24T17:59:41.951Z,73.00
2022-11-24T18:02:13.791Z,73.16
2022-11-24T18:04:45.927Z,73.10
2022-11-24T18:07:17.695Z,73.28
2022-11-24T18:09:49.471Z,73.20
2022-11-24T18:12:21.036Z,73.27
2022-11-24T18:14:52.758Z,73.24
2022-11-24T18:17:24.590Z,73.27
2022-11-24T18:19:56.168Z,73.12
2022-11-24T18:22:43.323Z,73.12
2022-11-24T18:25:19.511Z,73.13
2022-11-24T18:27:51.352Z,73.00
2022-11-24T18:30:23.055Z,73.13
2022-11-24T18:32:54.640Z,73.12
2022-11-24T18:35:26.433Z,73.19
2022-11-24T18:37:58.057Z,72.97
2022-11-24T18:40:29.716Z,72.90
2022-11-24T18:43:01.335Z,73.03
2022-11-24T18:45:33.397Z,73.19
2022-11-24T18:48:05.098Z,73.13
2022-11-24T18:50:36.650Z,73.26
2022-11-24T18:53:08.400Z,73.25
2022-11-24T18:55:39.986Z,73.20
2022-11-24T18:58:11.593Z,73.20
2022-11-24T19:00:43.149Z,73.29
2022-11-24T19:03:14.768Z,73.24
2022-11-24T19:05:46.792Z,73.10
2022-11-24T19:08:18.357Z,73.13
2022-11-24T19:10:50.221Z,73.04
2022-11-24T19:13:21.824Z,73.13
2022-11-24T19:15:53.661Z,73.24
2022-11-24T19:18:25.240Z,73.31
2022-11-24T19:20:58.447Z,73.36
2022-11-24T19:23:30.197Z,73.20
2022-11-24T19:26:04.155Z,73.30
2022-11-24T19:28:36.158Z,73.21
2022-11-24T19:31:11.748Z,73.36
2022-11-24T19:33:44.336Z,73.48
2022-11-24T19:36:18.414Z,73.49
2022-11-24T19:38:54.751Z,73.32
2022-11-24T19:41:28.355Z,73.43
2022-11-24T19:43:58.823Z,73.42
2022-11-24T19:46:31.255Z,73.32
2022-11-24T19:49:04.600Z,73.42
2022-11-24T19:51:38.582Z,73.57
2022-11-24T19:54:12.911Z,73.41
2022-11-24T19:56:44.550Z,73.48
2022-11-24T19:59:17.461Z,73.30
2022-11-24T20:01:49.123Z,73.41
2022-11-24T20:04:21.284Z,73.50
2022-11-24T20:06:52.820Z,73.37
2022-11-24T20:09:33.719Z,73.41
2022-11-24T20:12:09.798Z,73.57
2022-11-24T20:14:41.340Z,73.29
2022-11-24T20:17:14.038Z,73.56
2022-11-24T20:19:45.709Z,73.46
2022-11-24T20:22:17.287Z,73.48
2022-11-24T20:24:48.946Z,73.55
2022-11-24T20:27:20.609Z,73.75
2022-11-24T20:29:52.219Z,73.66
2022-11-24T20:32:23.760Z,73.77
2022-11-24T20:34:55.246Z,73.66
2022-11-24T20:37:28.498Z,73.66
2022-11-24T20:40:02.341Z,73.62
2022-11-24T20:42:35.517Z,73.53
2022-11-24T20:45:08.587Z,73.44
2022-11-24T20:47:40.150Z,73.47
2022-11-24T20:50:12.684Z,73.40
2022-11-24T20:52:44.179Z,73.44
2022-11-24T20:55:15.791Z,73.45
2022-11-24T20:57:47.407Z,73.38
2022-11-24T21:00:19.782Z,73.36
2022-11-24T21:02:51.254Z,73.40
2022-11-24T21:05:22.927Z,73.51
2022-11-24T21:07:54.818Z,73.50
2022-11-24T21:10:26.610Z,73.67
2022-11-24T21:12:58.159Z,73.51
2022-11-24T21:15:30.605Z,73.54
2022-11-24T21:18:02.147Z,73.53
2022-11-24T21:20:35.972Z,73.74
2022-11-24T21:23:07.571Z,73.74
2022-11-24T21:25:39.360Z,73.88
2022-11-24T21:28:12.909Z,73.73
2022-11-24T21:30:42.929Z,73.56
2022-11-24T21:33:14.580Z,73.65
2022-11-24T21:35:46.382Z,73.79
2022-11-24T21:38:17.860Z,73.51
2022-11-24T21:40:50.384Z,73.59
2022-11-24T21:43:22.065Z,73.61
2022-11-24T21:45:53.681Z,73.67
2022-11-24T21:48:25.510Z,73.69
2022-11-24T21:50:58.603Z,73.74
2022-11-24T21:53:33.316Z,73.73
2022-11-24T21:56:07.021Z,73.55
2022-11-24T21:58:37.272Z,73.69
2022-11-24T22:01:11.149Z,73.79
2022-11-24T22:03:42.739Z,73.89
2022-11-24T22:06:15.087Z,73.73
2022-11-24T22:08:47.236Z,73.95
2022-11-24T22:11:21.047Z,73.86
2022-11-24T22:13:52.991Z,74.02
2022-11-24T22:16:26.011Z,74.13
2022-11-24T22:18:57.732Z,74.12
2022-11-24T22:21:33.338Z,74.22
2022-11-24T22:24:05.796Z,74.23
2022-11-24T22:26:37.357Z,74.23
2022-11-24T22:29:09.237Z,74.31
2022-11-24T22:31:40.781Z,74.16
2022-11-24T22:34:12.453Z,74.17
2022-11-24T22:36:43.918Z,74.28
2022-11-24T22:39:15.509Z,74.29
2022-11-24T22:41:47.048Z,74.28
2022-11-24T22:44:18.577Z,74.46
2022-11-24T22:46:50.552Z,74.41
2022-11-24T22:49:22.105Z,74.45
2022-11-24T22:51:53.750Z,74.44
2022-11-24T22:54:25.438Z,74.55
2022-11-24T22:56:56.945Z,74.46
2022-11-24T22:59:28.528Z,74.54
2022-11-24T23:02:00.016Z,74.47
2022-11-24T23:04:31.543Z,74.64
2022-11-24T23:07:03.016Z,74.69
2022-11-24T23:09:35.020Z,74.64
2022-11-24T23:12:07.725Z,74.62
2022-11-24T23:14:39.212Z,74.71
2022-11-24T23:17:10.865Z,74.74
2022-11-24T23:19:42.401Z,74.90
2022-11-24T23:22:13.871Z,74.78
2022-11-24T23:24:45.327Z,74.78
2022-11-24T23:27:16.937Z,74.76
2022-11-24T23:29:48.408Z,74.65
2022-11-24T23:32:19.915Z,74.63
2022-11-24T23:34:51.587Z,74.80
2022-11-24T23:37:34.306Z,74.84
2022-11-24T23:40:15.475Z,74.78
2022-11-24T23:42:49.048Z,74.58
2022-11-24T23:45:19.107Z,74.70
2022-11-24T23:47:50.624Z,74.83
2022-11-24T23:50:22.266Z,74.74
2022-11-24T23:52:54.249Z,74.80
2022-11-24T23:55:25.768Z,75.03
2022-11-24T23:57:57.263Z,74.85
